EVLA/LPX METAR and TAF weather

Enter ICAO airport designator
Station Type Date Time Source
EVLA METAR 2019/05/21 20:20 UTC NOAA

EVLA 212020Z AUTO 07001KT 9999 NCD 17/16 Q1007


Station Type Date Time Source
EVLA Decoded METAR 2019/05/21 20:20 UTC NOAA

Liepaja International Airport, Latvia (EVLA) 56-31N 021-05E
May 21, 2019 - 04:20 PM EDT / 2019.05.21 2020 UTC
Wind: from the ENE (070 degrees) at 1 MPH (1 KT):0
Visibility: greater than 7 mile(s):0
Temperature: 62 F (17 C)
Dew Point: 60 F (16 C)
Relative Humidity: 93%
Pressure (altimeter): 29.74 in. Hg (1007 hPa)
ob: EVLA 212020Z AUTO 07001KT 9999 NCD 17/16 Q1007
cycle: 20

Station Type Date Time Source
EVLA TAF 2019/05/21 21:04 UTC NOAA

TAF EVLA 212002Z 2121/2221 VRB02KT CAVOK
TEMPO 2121/2203 0700 FG BKN001
TEMPO 2210/2215 4000 TSRA BKN040CB

Example: see airport list